Station: Hay Airport  

  Atmospheric Gas Attenuation - ITU Rec 676-11   ----------------- dB/100km -----------------
Date Time Temp RH % AH g/m3 Dew Point Wind Direction Speed kph Gust kph Barometer mB Rainfall Since 9am 24GHz 47GHz 76GHz 122GHz 134GHz 241GHz
08/05 12:30 16.1 63 8.64 9.1 30 39 1024.8 0 19.6 25.7 39.3 103.1 97.0 333.7
08/05 12:20 16.5 65 9.13 9.9 24 30 1025.1 0 20.6 26.4 41.1 107.7 102.9 354.3
08/05 12:10 16.1 65 8.91 9.5 30 33 1025.3 0 20.1 26.2 40.4 105.9 100.5 346.1
08/05 12:00 15.7 68 9.1 9.8 28 41 1025.4 0 20.5 26.6 41.4 108.5 103.5 356.6
08/05 11:50 15.9 68 9.21 10 32 35 1025.5 0 20.8 26.7 41.7 109.4 104.7 360.8
08/05 11:40 15.5 69 9.12 9.8 30 35 1025.7 0 20.6 26.7 41.6 109.0 104.1 358.5
08/05 11:30 15 72 9.23 10 28 43 1025.9 0 20.9 27.0 42.3 111.0 106.3 366.0
08/05 11:20 14.9 72 9.18 9.9 30 35 1026.1 0 20.8 27.0 42.2 110.6 105.7 364.2
08/05 11:10 14.6 73 9.14 9.8 32 35 1026 0 20.7 27.0 42.1 110.6 105.6 363.7
08/05 11:00 14.6 74 9.26 10 32 41 1026.1 0 20.9 27.2 42.6 111.9 107.2 369.4
08/05 10:50 14.3 75 9.21 9.9 33 37 1026.2 0 20.9 27.2 42.6 111.8 107.0 368.5
08/05 10:40 14.4 76 9.39 10.2 30 33 1026.1 0 21.2 27.5 43.3 113.6 109.3 376.5
08/05 10:30 13.9 76 9.11 9.7 33 43 1026.2 0 20.7 27.2 42.4 111.2 106.2 365.6
08/05 10:20 14 77 9.29 10 32 37 1026.2 0 21.0 27.5 43.1 113.1 108.5 373.7
08/05 10:10 13.7 78 9.24 9.9 32 37 1026.2 0 20.9 27.5 43.1 113.0 108.2 372.7
08/05 10:00 13.5 80 9.36 10.1 30 39 1026.2 0 21.2 27.7 43.7 114.6 110.2 379.4
08/05 09:50 13.2 79 9.07 9.6 35 39 1026.4 0 20.6 27.3 42.6 111.8 106.6 367.0
08/05 09:40 13.3 79 9.13 9.7 35 41 1026.3 0 20.7 27.4 42.8 112.3 107.3 369.4
08/05 09:30 13.5 79 9.24 9.9 28 37 1026.1 0 21.0 27.5 43.2 113.2 108.5 373.7
08/05 09:20 12.8 81 9.07 9.6 32 35 1026 0 20.6 27.5 42.8 112.3 107.1 368.8
08/05 09:10 12.6 83 9.18 9.8 26 30 1026 0 20.9 27.7 43.4 113.9 108.9 375.1
08/05 09:00 12 88 9.38 10.1 24 32 1026.1 0 21.3 28.2 44.6 117.0 112.6 387.8
08/05 08:50 11.4 91 9.34 10 22 26 1026.2 0 21.3 28.4 44.8 117.5 112.9 388.8
08/05 08:40 11.2 92 9.33 9.9 22 28 1026.4 0 21.3 28.4 44.8 117.7 113.1 389.4
08/05 08:30 11 95 9.51 10.2 22 30 1026.4 0 21.7 28.8 45.7 120.1 116.0 399.4
08/05 08:20 10.9 93 9.25 9.8 28 32 1026.4 0 21.1 28.4 44.7 117.2 112.4 387.0
08/05 08:10 10.8 93 9.19 9.7 28 32 1026.4 0 21.0 28.3 44.5 116.7 111.7 384.5
08/05 08:00 10.7 92 9.04 9.5 26 33 1026.4 0 20.7 28.1 43.9 115.1 109.7 377.5
08/05 07:50 10.8 91 9 9.4 28 35 1026.5 0 20.6 28.0 43.7 114.5 109.0 375.1
08/05 07:40 10.7 90 8.84 9.1 28 33 1026.4 0 20.2 27.7 43.0 112.8 106.9 367.7
08/05 07:30 10.3 91 8.72 8.9 24 33 1026.3 0 20.0 27.7 42.7 112.0 105.8 363.6
08/05 07:20 10.3 90 8.62 8.7 24 32 1026.2 0 19.8 27.5 42.3 110.9 104.4 358.7
08/05 07:10 10.2 89 8.47 8.5 19 24 1026.1 0 19.5 27.3 41.7 109.3 102.4 351.8
08/05 07:00 10.1 89 8.42 8.4 24 32 1025.9 0 19.4 27.2 41.5 108.9 101.8 349.8
08/05 06:50 9.9 88 8.22 8 26 33 1025.6 0 19.0 26.9 40.8 106.8 99.3 340.8
08/05 06:40 9.9 88 8.22 8 22 26 1025.5 0 19.0 26.9 40.8 106.8 99.3 340.8
08/05 06:30 10 88 8.27 8.1 20 28 1025.4 0 19.1 26.9 40.9 107.2 99.8 342.8
08/05 06:20 9.6 89 8.16 7.9 20 24 1025.3 0 18.8 26.9 40.7 106.5 98.8 339.1
08/05 06:10 9.7 89 8.21 8 20 24 1025 0 18.9 26.9 40.8 106.9 99.3 341.1
08/05 06:00 9.5 90 8.19 7.9 24 35 1024.9 0 18.9 26.9 40.8 107.0 99.3 340.9
08/05 05:50 9.2 90 8.04 7.6 24 30 1024.9 0 18.6 26.8 40.4 105.7 97.6 334.9
08/05 05:40 9.1 90 7.99 7.5 24 28 1024.9 0 18.5 26.7 40.2 105.3 97.0 332.9
08/05 05:30 9 89 7.85 7.3 24 32 1024.8 0 18.2 26.5 39.6 103.8 95.2 326.5
08/05 05:20 9.1 88 7.81 7.2 28 32 1024.9 0 18.1 26.4 39.4 103.2 94.5 324.2
08/05 05:10 8.8 89 7.75 7.1 22 26 1024.9 0 18.0 26.4 39.3 103.0 94.1 322.6
08/05 05:00 8.6 89 7.65 6.9 20 28 1024.9 0 17.8 26.3 39.0 102.1 92.9 318.5
08/05 04:50 8.5 88 7.52 6.6 20 24 1025 0 17.5 26.1 38.5 100.8 91.3 312.7
08/05 04:40 8.6 87 7.48 6.6 22 30 1024.9 0 17.4 26.0 38.3 100.2 90.6 310.3
08/05 04:30 8.3 85 7.17 5.9 19 24 1024.9 0 16.8 25.6 37.2 97.2 86.7 296.7
08/05 04:20 8.6 84 7.22 6.1 19 20 1024.9 0 16.9 25.6 37.2 97.3 87.1 297.9
08/05 04:10 8.5 83 7.09 5.8 17 20 1024.9 0 16.6 25.4 36.7 96.0 85.4 292.1
08/05 04:00 8.6 82 7.05 5.7 19 24 1025 0 16.5 25.3 36.5 95.5 84.8 289.9
08/05 03:50 8.9 80 7.01 5.6 20 24 1025 0 16.4 25.2 36.2 94.7 83.9 286.9
08/05 03:40 8.9 80 7.01 5.6 20 24 1025 0 16.4 25.2 36.2 94.7 83.9 286.9
08/05 03:30 9.1 78 6.92 5.5 20 26 1025 0 16.2 24.9 35.8 93.5 82.5 282.0
08/05 03:20 9.7 75 6.92 5.5 19 24 1025.1 0 16.2 24.8 35.5 92.8 81.9 279.8
08/05 03:10 9.7 74 6.82 5.3 20 26 1025.2 0 16.0 24.6 35.1 91.7 80.5 275.2
08/05 03:00 10.1 73 6.9 5.5 20 30 1025.2 0 16.1 24.6 35.3 92.1 81.2 277.5
08/05 02:50 10 74 6.96 5.6 17 20 1025.3 0 16.2 24.8 35.5 92.9 82.1 280.7
08/05 02:40 9.8 74 6.87 5.4 17 20 1025.3 0 16.1 24.7 35.3 92.1 81.1 277.2
08/05 02:30 9.9 73 6.82 5.3 19 26 1025.3 0 16.0 24.6 35.0 91.5 80.3 274.6
08/05 02:20 10 72 6.77 5.2 19 22 1025.4 0 15.8 24.5 34.8 90.9 79.6 272.0
08/05 02:10 10 71 6.67 5 15 19 1025.5 0 15.6 24.3 34.4 89.8 78.3 267.4
08/05 02:00 10 71 6.67 5 20 26 1025.6 0 15.6 24.3 34.4 89.8 78.3 267.4
08/05 01:50 10 71 6.67 5 20 24 1025.8 0 15.6 24.3 34.4 89.8 78.3 267.5
08/05 01:40 10 71 6.67 5 19 22 1025.8 0 15.6 24.3 34.4 89.8 78.3 267.5
08/05 01:30 9.9 71 6.63 4.9 19 24 1025.8 0 15.5 24.3 34.3 89.5 77.9 266.0
08/05 01:20 9.7 71 6.55 4.7 17 19 1025.7 0 15.4 24.2 34.1 88.9 77.0 263.0
08/05 01:10 9.7 72 6.64 4.9 17 20 1025.7 0 15.6 24.4 34.4 89.9 78.2 267.1
08/05 01:00 9.5 72 6.56 4.7 15 19 1025.7 0 15.4 24.3 34.2 89.2 77.4 264.1
08/05 00:50 9.2 71 6.34 4.2 15 17 1025.7 0 15.0 24.0 33.4 87.2 74.8 255.0
08/05 00:40 9.2 70 6.25 4 17 19 1025.6 0 14.8 23.9 33.1 86.3 73.6 250.9
08/05 00:20 9 71 6.26 4 17 20 1025.9 0 14.8 23.9 33.2 86.6 74.0 252.0
08/05 00:10 8.9 71 6.22 3.9 17 17 1025.9 0 14.7 23.9 33.1 86.3 73.5 250.5
08/05 00:00 8.7 71 6.14 3.7 17 22 1026 0 14.5 23.8 32.9 85.7 72.7 247.5
07/05 23:50 8.4 71 6.03 3.5 19 20 1026 0 14.3 23.7 32.6 84.9 71.5 243.5
07/05 23:40 8.1 72 5.99 3.4 19 20 1026.1 0 14.2 23.8 32.5 84.8 71.3 242.6
07/05 23:30 8.2 71 5.95 3.3 19 24 1026.1 0 14.2 23.7 32.3 84.3 70.7 240.4
07/05 23:20 8.2 71 5.95 3.3 20 20 1026.1 0 14.2 23.7 32.3 84.3 70.7 240.4
07/05 23:10 8.1 70 5.83 3 20 22 1026.1 0 13.9 23.5 31.9 83.1 69.2 235.3
07/05 23:00 8.3 69 5.82 3 20 24 1026.1 0 13.9 23.4 31.8 82.8 68.9 234.2
07/05 22:50 8.8 68 5.92 3.2 20 24 1026 0 14.1 23.5 32.0 83.3 69.8 237.3
07/05 22:40 8.9 67 5.87 3.1 22 24 1026 0 14.0 23.4 31.7 82.7 69.0 234.7
07/05 22:30 9.2 66 5.9 3.2 20 26 1026.1 0 14.0 23.3 31.7 82.7 69.2 235.2
07/05 22:20 8.9 68 5.96 3.3 19 24 1026.2 0 14.2 23.5 32.1 83.6 70.2 238.8
07/05 22:10 8.6 67 5.76 2.8 17 19 1026.2 0 13.7 23.3 31.4 81.9 67.9 230.7
07/05 22:00 8.5 68 5.81 2.9 17 20 1026.2 0 13.8 23.4 31.7 82.5 68.6 233.2
07/05 21:50 8.1 70 5.83 3 15 17 1026.3 0 13.9 23.5 31.9 83.1 69.2 235.3
07/05 21:40 7.9 70 5.75 2.8 15 19 1026.1 0 13.7 23.4 31.7 82.5 68.4 232.2
07/05 21:30 8.5 69 5.89 3.1 15 17 1026.1 0 14.0 23.5 32.0 83.3 69.6 236.8
07/05 21:20 8.3 69 5.82 3 15 19 1026 0 13.9 23.4 31.8 82.8 68.9 234.2
07/05 21:10 8.4 69 5.86 3.1 15 19 1026 0 14.0 23.5 31.9 83.1 69.3 235.7
07/05 21:00 7.9 71 5.83 3 13 17 1025.9 0 13.9 23.6 32.0 83.3 69.4 235.8
07/05 20:50 7.9 71 5.83 3 15 17 1025.9 0 13.9 23.6 32.0 83.3 69.4 235.8
07/05 20:40 8.2 70 5.86 3.1 13 15 1026 0 14.0 23.5 32.0 83.3 69.5 236.3
07/05 20:30 8.7 67 5.8 2.9 17 20 1026 0 13.8 23.3 31.6 82.2 68.3 232.1
07/05 20:20 8.7 67 5.8 2.9 17 17 1026.1 0 13.8 23.3 31.6 82.2 68.3 232.2
07/05 20:10 8.5 66 5.64 2.5 17 20 1026.1 0 13.5 23.1 31.0 80.7 66.4 225.6
07/05 20:00 8.4 66 5.6 2.4 15 17 1026.2 0 13.4 23.1 30.9 80.4 66.0 224.1
07/05 19:50 8.3 65 5.48 2.1 13 15 1026.2 0 13.2 22.9 30.5 79.3 64.6 219.0

Last Refresh: 08-May-2026 12:08:29

Bureau of Meteorology